sensor_id;sensor_type;location;lat;lon;timestamp;pressure;altitude;pressure_sealevel;temperature;humidity
75425;BME280;64007;50.632;13.700;2023-02-15T00:01:26;99619.13;;;2.22;100.00
75425;BME280;64007;50.632;13.700;2023-02-15T00:03:51;99615.53;;;2.26;100.00
75425;BME280;64007;50.632;13.700;2023-02-15T00:06:17;99613.97;;;2.17;100.00
75425;BME280;64007;50.632;13.700;2023-02-15T00:08:43;99610.34;;;2.23;100.00
75425;BME280;64007;50.632;13.700;2023-02-15T00:11:11;99608.84;;;2.13;100.00
75425;BME280;64007;50.632;13.700;2023-02-15T00:13:37;99616.78;;;2.10;100.00
75425;BME280;64007;50.632;13.700;2023-02-15T00:16:12;99611.66;;;2.04;100.00
75425;BME280;64007;50.632;13.700;2023-02-15T00:18:39;99615.03;;;2.09;100.00
75425;BME280;64007;50.632;13.700;2023-02-15T00:21:07;99609.47;;;2.24;100.00
75425;BME280;64007;50.632;13.700;2023-02-15T00:23:34;99606.22;;;2.13;100.00
75425;BME280;64007;50.632;13.700;2023-02-15T00:26:11;99606.34;;;2.07;100.00
75425;BME280;64007;50.632;13.700;2023-02-15T00:28:38;99603.50;;;2.16;100.00
75425;BME280;64007;50.632;13.700;2023-02-15T00:31:10;99605.44;;;2.08;100.00
75425;BME280;64007;50.632;13.700;2023-02-15T00:33:38;99603.00;;;1.99;100.00
75425;BME280;64007;50.632;13.700;2023-02-15T00:36:06;99600.38;;;1.99;100.00
75425;BME280;64007;50.632;13.700;2023-02-15T00:38:32;99602.25;;;1.92;100.00
75425;BME280;64007;50.632;13.700;2023-02-15T00:41:01;99603.97;;;1.93;100.00
75425;BME280;64007;50.632;13.700;2023-02-15T00:43:27;99594.41;;;1.91;100.00
75425;BME280;64007;50.632;13.700;2023-02-15T00:45:54;99597.09;;;1.87;100.00
75425;BME280;64007;50.632;13.700;2023-02-15T00:48:20;99593.03;;;1.74;100.00
75425;BME280;64007;50.632;13.700;2023-02-15T00:50:49;99596.09;;;1.95;100.00
75425;BME280;64007;50.632;13.700;2023-02-15T00:53:15;99596.41;;;1.79;100.00
75425;BME280;64007;50.632;13.700;2023-02-15T00:55:42;99584.13;;;1.81;100.00
75425;BME280;64007;50.632;13.700;2023-02-15T00:58:09;99578.75;;;1.87;100.00
75425;BME280;64007;50.632;13.700;2023-02-15T01:00:35;99580.44;;;1.90;100.00
75425;BME280;64007;50.632;13.700;2023-02-15T01:03:01;99571.06;;;1.80;100.00
75425;BME280;64007;50.632;13.700;2023-02-15T01:05:28;99577.06;;;1.85;100.00
75425;BME280;64007;50.632;13.700;2023-02-15T01:07:55;99574.31;;;1.91;100.00
75425;BME280;64007;50.632;13.700;2023-02-15T01:10:21;99569.13;;;1.88;100.00
75425;BME280;64007;50.632;13.700;2023-02-15T01:12:47;99563.91;;;1.86;100.00
75425;BME280;64007;50.632;13.700;2023-02-15T01:15:12;99567.44;;;1.85;100.00
75425;BME280;64007;50.632;13.700;2023-02-15T01:17:38;99560.31;;;1.91;100.00
75425;BME280;64007;50.632;13.700;2023-02-15T01:20:05;99547.94;;;1.97;100.00
75425;BME280;64007;50.632;13.700;2023-02-15T01:22:32;99549.00;;;1.88;100.00
75425;BME280;64007;50.632;13.700;2023-02-15T01:24:57;99548.19;;;1.86;100.00
75425;BME280;64007;50.632;13.700;2023-02-15T01:27:23;99544.38;;;2.01;100.00
75425;BME280;64007;50.632;13.700;2023-02-15T01:29:49;99541.06;;;1.92;100.00
75425;BME280;64007;50.632;13.700;2023-02-15T01:32:14;99539.38;;;1.89;100.00
75425;BME280;64007;50.632;13.700;2023-02-15T01:34:40;99543.63;;;1.95;100.00
75425;BME280;64007;50.632;13.700;2023-02-15T01:37:06;99538.38;;;1.95;100.00
75425;BME280;64007;50.632;13.700;2023-02-15T01:39:31;99543.44;;;2.04;100.00
75425;BME280;64007;50.632;13.700;2023-02-15T01:41:57;99540.44;;;1.80;100.00
75425;BME280;64007;50.632;13.700;2023-02-15T01:44:46;99542.34;;;1.74;100.00
75425;BME280;64007;50.632;13.700;2023-02-15T01:47:17;99536.91;;;1.81;100.00
75425;BME280;64007;50.632;13.700;2023-02-15T01:49:47;99540.66;;;1.71;100.00
75425;BME280;64007;50.632;13.700;2023-02-15T01:52:16;99530.09;;;1.74;100.00
75425;BME280;64007;50.632;13.700;2023-02-15T01:54:44;99522.44;;;1.64;100.00
75425;BME280;64007;50.632;13.700;2023-02-15T01:57:14;99530.19;;;1.70;100.00
75425;BME280;64007;50.632;13.700;2023-02-15T01:59:46;99523.31;;;1.64;100.00
75425;BME280;64007;50.632;13.700;2023-02-15T02:02:16;99525.03;;;1.65;100.00
75425;BME280;64007;50.632;13.700;2023-02-15T02:04:52;99527.06;;;1.51;100.00
75425;BME280;64007;50.632;13.700;2023-02-15T02:07:21;99536.75;;;1.47;100.00
75425;BME280;64007;50.632;13.700;2023-02-15T02:09:48;99528.84;;;1.49;100.00
75425;BME280;64007;50.632;13.700;2023-02-15T02:12:16;99532.44;;;1.45;100.00
75425;BME280;64007;50.632;13.700;2023-02-15T02:14:44;99533.50;;;1.35;100.00
75425;BME280;64007;50.632;13.700;2023-02-15T02:23:08;99519.53;;;1.34;100.00
75425;BME280;64007;50.632;13.700;2023-02-15T02:28:46;99518.72;;;1.32;100.00
75425;BME280;64007;50.632;13.700;2023-02-15T02:34:12;99523.53;;;1.52;100.00
75425;BME280;64007;50.632;13.700;2023-02-15T02:36:46;99513.31;;;1.40;100.00
75425;BME280;64007;50.632;13.700;2023-02-15T02:39:23;99511.53;;;1.42;100.00
75425;BME280;64007;50.632;13.700;2023-02-15T02:42:14;99511.78;;;1.30;100.00
75425;BME280;64007;50.632;13.700;2023-02-15T02:44:46;99515.34;;;1.25;100.00
75425;BME280;64007;50.632;13.700;2023-02-15T02:49:43;99506.53;;;1.30;100.00
75425;BME280;64007;50.632;13.700;2023-02-15T02:52:47;99500.94;;;1.46;100.00
75425;BME280;64007;50.632;13.700;2023-02-15T02:55:39;99508.06;;;1.40;100.00
75425;BME280;64007;50.632;13.700;2023-02-15T03:00:57;99506.91;;;1.53;100.00
75425;BME280;64007;50.632;13.700;2023-02-15T03:03:34;99510.41;;;1.53;100.00
75425;BME280;64007;50.632;13.700;2023-02-15T03:06:08;99502.84;;;1.40;100.00
75425;BME280;64007;50.632;13.700;2023-02-15T03:08:42;99499.50;;;1.32;100.00
75425;BME280;64007;50.632;13.700;2023-02-15T03:11:11;99496.00;;;1.33;100.00
75425;BME280;64007;50.632;13.700;2023-02-15T03:13:37;99502.25;;;1.25;100.00
75425;BME280;64007;50.632;13.700;2023-02-15T03:16:04;99494.47;;;1.22;100.00
75425;BME280;64007;50.632;13.700;2023-02-15T03:18:53;99490.06;;;1.23;100.00
75425;BME280;64007;50.632;13.700;2023-02-15T03:21:45;99488.13;;;1.33;100.00
75425;BME280;64007;50.632;13.700;2023-02-15T03:24:35;99485.56;;;1.30;100.00
75425;BME280;64007;50.632;13.700;2023-02-15T03:27:05;99483.78;;;1.32;100.00
75425;BME280;64007;50.632;13.700;2023-02-15T03:29:33;99488.13;;;1.33;100.00
75425;BME280;64007;50.632;13.700;2023-02-15T03:32:02;99484.72;;;1.29;100.00
75425;BME280;64007;50.632;13.700;2023-02-15T03:34:30;99488.25;;;1.27;100.00
75425;BME280;64007;50.632;13.700;2023-02-15T03:43:08;99486.66;;;1.18;100.00
75425;BME280;64007;50.632;13.700;2023-02-15T03:45:39;99489.16;;;1.25;100.00
75425;BME280;64007;50.632;13.700;2023-02-15T03:48:27;99484.88;;;1.20;100.00
75425;BME280;64007;50.632;13.700;2023-02-15T03:50:58;99486.69;;;1.16;100.00
75425;BME280;64007;50.632;13.700;2023-02-15T03:53:44;99478.75;;;1.19;100.00
75425;BME280;64007;50.632;13.700;2023-02-15T03:56:11;99478.75;;;1.19;100.00
75425;BME280;64007;50.632;13.700;2023-02-15T03:58:37;99476.28;;;1.13;100.00
75425;BME280;64007;50.632;13.700;2023-02-15T04:01:39;99484.13;;;1.13;100.00
75425;BME280;64007;50.632;13.700;2023-02-15T04:04:30;99470.31;;;1.05;100.00
75425;BME280;64007;50.632;13.700;2023-02-15T04:06:57;99468.47;;;1.10;100.00
75425;BME280;64007;50.632;13.700;2023-02-15T04:09:23;99468.53;;;1.07;100.00
75425;BME280;64007;50.632;13.700;2023-02-15T04:12:08;99472.00;;;1.09;100.00
75425;BME280;64007;50.632;13.700;2023-02-15T04:14:33;99467.66;;;1.08;100.00
75425;BME280;64007;50.632;13.700;2023-02-15T04:17:18;99467.66;;;1.08;100.00
75425;BME280;64007;50.632;13.700;2023-02-15T04:19:43;99469.31;;;1.12;100.00
75425;BME280;64007;50.632;13.700;2023-02-15T04:22:28;99461.88;;;1.36;100.00
75425;BME280;64007;50.632;13.700;2023-02-15T04:25:12;99464.78;;;1.22;100.00
75425;BME280;64007;50.632;13.700;2023-02-15T04:27:42;99469.19;;;1.18;100.00
75425;BME280;64007;50.632;13.700;2023-02-15T04:30:09;99469.41;;;1.08;100.00
75425;BME280;64007;50.632;13.700;2023-02-15T04:32:36;99466.09;;;0.98;100.00
75425;BME280;64007;50.632;13.700;2023-02-15T04:35:03;99474.81;;;0.99;100.00
75425;BME280;64007;50.632;13.700;2023-02-15T04:37:29;99471.94;;;1.12;100.00
75425;BME280;64007;50.632;13.700;2023-02-15T04:39:54;99469.31;;;1.12;100.00
75425;BME280;64007;50.632;13.700;2023-02-15T04:42:20;99473.81;;;1.06;100.00
75425;BME280;64007;50.632;13.700;2023-02-15T04:44:46;99462.38;;;1.10;100.00
75425;BME280;64007;50.632;13.700;2023-02-15T04:47:12;99460.75;;;1.04;100.00
75425;BME280;64007;50.632;13.700;2023-02-15T04:49:38;99452.09;;;1.01;100.00
75425;BME280;64007;50.632;13.700;2023-02-15T04:52:03;99454.34;;;1.17;100.00
75425;BME280;64007;50.632;13.700;2023-02-15T04:54:29;99457.25;;;1.04;100.00
75425;BME280;64007;50.632;13.700;2023-02-15T04:56:55;99455.56;;;1.01;100.00
75425;BME280;64007;50.632;13.700;2023-02-15T04:59:20;99458.06;;;1.07;100.00
75425;BME280;64007;50.632;13.700;2023-02-15T05:01:46;99459.56;;;1.20;100.00
75425;BME280;64007;50.632;13.700;2023-02-15T05:04:12;99456.06;;;1.21;100.00
75425;BME280;64007;50.632;13.700;2023-02-15T05:06:38;99459.78;;;1.08;100.00
75425;BME280;64007;50.632;13.700;2023-02-15T05:09:03;99460.78;;;1.03;100.00
75425;BME280;64007;50.632;13.700;2023-02-15T05:11:29;99457.41;;;0.96;100.00
75425;BME280;64007;50.632;13.700;2023-02-15T05:13:55;99460.16;;;0.90;100.00
75425;BME280;64007;50.632;13.700;2023-02-15T05:16:20;99459.06;;;1.00;100.00
75425;BME280;64007;50.632;13.700;2023-02-15T05:18:46;99462.56;;;1.01;100.00
75425;BME280;64007;50.632;13.700;2023-02-15T05:21:12;99459.13;;;0.97;100.00
75425;BME280;64007;50.632;13.700;2023-02-15T05:23:39;99461.50;;;1.09;100.00
75425;BME280;64007;50.632;13.700;2023-02-15T05:26:05;99462.69;;;0.94;100.00
75425;BME280;64007;50.632;13.700;2023-02-15T05:28:49;99469.91;;;0.82;100.00
75425;BME280;64007;50.632;13.700;2023-02-15T05:31:17;99469.03;;;0.80;100.00
75425;BME280;64007;50.632;13.700;2023-02-15T05:33:44;99468.22;;;0.78;100.00
75425;BME280;64007;50.632;13.700;2023-02-15T05:36:10;99470.81;;;0.78;100.00
75425;BME280;64007;50.632;13.700;2023-02-15T05:38:37;99470.81;;;0.81;100.00
75425;BME280;64007;50.632;13.700;2023-02-15T05:41:07;99474.28;;;0.80;100.00
75425;BME280;64007;50.632;13.700;2023-02-15T05:43:33;99472.06;;;1.06;100.00
75425;BME280;64007;50.632;13.700;2023-02-15T05:45:59;99464.44;;;0.94;100.00
75425;BME280;64007;50.632;13.700;2023-02-15T05:48:26;99480.25;;;0.88;100.00
75425;BME280;64007;50.632;13.700;2023-02-15T05:51:00;99467.06;;;0.94;100.00
75425;BME280;64007;50.632;13.700;2023-02-15T05:53:26;99467.88;;;0.96;100.00
75425;BME280;64007;50.632;13.700;2023-02-15T05:55:52;99472.53;;;0.82;100.00
75425;BME280;64007;50.632;13.700;2023-02-15T05:58:19;99476.84;;;0.84;100.00
75425;BME280;64007;50.632;13.700;2023-02-15T06:00:45;99475.63;;;1.02;100.00
75425;BME280;64007;50.632;13.700;2023-02-15T06:03:11;99476.81;;;0.86;100.00
75425;BME280;64007;50.632;13.700;2023-02-15T06:05:37;99471.91;;;0.68;100.00
75425;BME280;64007;50.632;13.700;2023-02-15T06:08:02;99474.56;;;0.65;100.00
75425;BME280;64007;50.632;13.700;2023-02-15T06:10:28;99476.47;;;0.56;100.00
75425;BME280;64007;50.632;13.700;2023-02-15T06:12:54;99476.19;;;0.72;100.00
75425;BME280;64007;50.632;13.700;2023-02-15T06:15:20;99478.06;;;0.63;100.00
75425;BME280;64007;50.632;13.700;2023-02-15T06:17:45;99476.34;;;0.62;100.00
75425;BME280;64007;50.632;13.700;2023-02-15T06:20:11;99484.16;;;0.66;100.00
75425;BME280;64007;50.632;13.700;2023-02-15T06:22:37;99487.56;;;0.69;100.00
75425;BME280;64007;50.632;13.700;2023-02-15T06:25:03;99481.75;;;0.53;100.00
75425;BME280;64007;50.632;13.700;2023-02-15T06:27:29;99485.16;;;0.58;100.00
75425;BME280;64007;50.632;13.700;2023-02-15T06:29:55;99485.19;;;0.55;100.00
75425;BME280;64007;50.632;13.700;2023-02-15T06:32:20;99483.56;;;0.50;100.00
75425;BME280;64007;50.632;13.700;2023-02-15T06:34:46;99486.09;;;0.54;100.00
75425;BME280;64007;50.632;13.700;2023-02-15T06:37:12;99484.16;;;0.64;100.00
75425;BME280;64007;50.632;13.700;2023-02-15T06:39:38;99473.75;;;0.61;100.00
75425;BME280;64007;50.632;13.700;2023-02-15T06:42:03;99476.47;;;0.56;100.00
75425;BME280;64007;50.632;13.700;2023-02-15T06:44:29;99480.78;;;0.59;100.00
75425;BME280;64007;50.632;13.700;2023-02-15T06:46:54;99472.94;;;0.57;100.00
75425;BME280;64007;50.632;13.700;2023-02-15T06:49:20;99474.06;;;0.44;100.00
75425;BME280;64007;50.632;13.700;2023-02-15T06:51:46;99483.63;;;0.45;100.00
75425;BME280;64007;50.632;13.700;2023-02-15T06:54:12;99485.38;;;0.46;100.00
75425;BME280;64007;50.632;13.700;2023-02-15T06:56:38;99483.63;;;0.45;100.00
75425;BME280;64007;50.632;13.700;2023-02-15T06:59:04;99481.69;;;0.56;100.00
75425;BME280;64007;50.632;13.700;2023-02-15T07:01:29;99481.59;;;0.62;100.00
75425;BME280;64007;50.632;13.700;2023-02-15T07:03:55;99479.91;;;0.58;100.00
75425;BME280;64007;50.632;13.700;2023-02-15T07:06:21;99482.66;;;0.51;100.00
75425;BME280;64007;50.632;13.700;2023-02-15T07:08:47;99477.53;;;0.45;100.00
75425;BME280;64007;50.632;13.700;2023-02-15T07:11:12;99472.28;;;0.46;100.00
75425;BME280;64007;50.632;13.700;2023-02-15T07:13:57;99464.47;;;0.43;100.00
75425;BME280;64007;50.632;13.700;2023-02-15T07:16:22;99473.09;;;0.50;100.00
75425;BME280;64007;50.632;13.700;2023-02-15T07:18:48;99467.69;;;0.59;100.00
75425;BME280;64007;50.632;13.700;2023-02-15T07:21:14;99467.59;;;0.63;100.00
75425;BME280;64007;50.632;13.700;2023-02-15T07:23:40;99474.28;;;0.80;100.00
75425;BME280;64007;50.632;13.700;2023-02-15T07:26:06;99472.50;;;0.83;100.00
75425;BME280;64007;50.632;13.700;2023-02-15T07:28:33;99468.97;;;0.86;100.00
75425;BME280;64007;50.632;13.700;2023-02-15T07:31:03;99476.25;;;0.67;100.00
75425;BME280;64007;50.632;13.700;2023-02-15T07:33:33;99476.88;;;0.83;100.00
75425;BME280;64007;50.632;13.700;2023-02-15T07:36:01;99477.19;;;0.65;100.00
75425;BME280;64007;50.632;13.700;2023-02-15T07:38:31;99474.44;;;0.71;100.00
75425;BME280;64007;50.632;13.700;2023-02-15T07:40:58;99470.13;;;0.68;100.00
75425;BME280;64007;50.632;13.700;2023-02-15T07:43:25;99472.53;;;0.82;100.00
75425;BME280;64007;50.632;13.700;2023-02-15T07:45:50;99457.69;;;0.82;100.00
75425;BME280;64007;50.632;13.700;2023-02-15T07:48:16;99472.56;;;0.79;100.00
75425;BME280;64007;50.632;13.700;2023-02-15T07:50:42;99470.81;;;0.81;100.00
75425;BME280;64007;50.632;13.700;2023-02-15T07:53:08;99473.09;;;0.98;100.00
75425;BME280;64007;50.632;13.700;2023-02-15T07:55:34;99468.91;;;0.89;100.00
75425;BME280;64007;50.632;13.700;2023-02-15T07:58:00;99470.75;;;0.84;100.00
75425;BME280;64007;50.632;13.700;2023-02-15T08:00:26;99468.38;;;0.69;100.00
75425;BME280;64007;50.632;13.700;2023-02-15T08:02:54;99468.19;;;0.79;100.00
75425;BME280;64007;50.632;13.700;2023-02-15T08:05:43;99471.00;;;0.69;100.00
75425;BME280;64007;50.632;13.700;2023-02-15T08:08:10;99471.06;;;0.66;100.00
75425;BME280;64007;50.632;13.700;2023-02-15T08:13:54;99475.00;;;0.89;100.00
75425;BME280;64007;50.632;13.700;2023-02-15T08:16:28;99473.28;;;0.88;100.00
75425;BME280;64007;50.632;13.700;2023-02-15T08:18:56;99469.81;;;0.86;100.00
75425;BME280;64007;50.632;13.700;2023-02-15T08:21:22;99470.72;;;0.85;100.00
75425;BME280;64007;50.632;13.700;2023-02-15T08:23:48;99466.94;;;1.00;100.00
75425;BME280;64007;50.632;13.700;2023-02-15T08:26:14;99465.94;;;1.06;100.00
75425;BME280;64007;50.632;13.700;2023-02-15T08:28:40;99467.94;;;0.93;100.00
75425;BME280;64007;50.632;13.700;2023-02-15T08:31:10;99460.31;;;0.79;100.00
75425;BME280;64007;50.632;13.700;2023-02-15T08:33:38;99457.75;;;0.78;100.00
75425;BME280;64007;50.632;13.700;2023-02-15T08:36:05;99456.69;;;0.88;100.00
75425;BME280;64007;50.632;13.700;2023-02-15T08:38:31;99453.78;;;1.03;100.00
75425;BME280;64007;50.632;13.700;2023-02-15T08:40:58;99449.44;;;1.02;100.00
75425;BME280;64007;50.632;13.700;2023-02-15T08:43:33;99446.22;;;0.88;100.00
75425;BME280;64007;50.632;13.700;2023-02-15T08:45:59;99445.50;;;0.81;100.00
75425;BME280;64007;50.632;13.700;2023-02-15T08:48:25;99442.88;;;0.81;100.00
75425;BME280;64007;50.632;13.700;2023-02-15T08:50:50;99449.63;;;0.93;100.00
75425;BME280;64007;50.632;13.700;2023-02-15T08:53:16;99444.50;;;0.87;100.00
75425;BME280;64007;50.632;13.700;2023-02-15T08:55:47;99446.25;;;0.86;100.00
75425;BME280;64007;50.632;13.700;2023-02-15T08:58:13;99446.38;;;0.79;100.00
75425;BME280;64007;50.632;13.700;2023-02-15T09:00:38;99447.22;;;0.82;100.00
75425;BME280;64007;50.632;13.700;2023-02-15T09:03:04;99443.75;;;0.80;100.00
75425;BME280;64007;50.632;13.700;2023-02-15T09:05:30;99444.63;;;0.81;100.00
75425;BME280;64007;50.632;13.700;2023-02-15T09:07:56;99442.81;;;0.84;100.00
75425;BME280;64007;50.632;13.700;2023-02-15T09:10:21;99442.78;;;0.86;100.00
75425;BME280;64007;50.632;13.700;2023-02-15T09:12:47;99434.91;;;0.86;100.00
75425;BME280;64007;50.632;13.700;2023-02-15T09:15:15;99434.78;;;0.93;100.00
75425;BME280;64007;50.632;13.700;2023-02-15T09:17:41;99432.06;;;0.98;100.00
75425;BME280;64007;50.632;13.700;2023-02-15T09:20:07;99429.44;;;0.98;100.00
75425;BME280;64007;50.632;13.700;2023-02-15T09:22:33;99437.34;;;0.95;100.00
75425;BME280;64007;50.632;13.700;2023-02-15T09:24:58;99425.97;;;0.98;100.00
75425;BME280;64007;50.632;13.700;2023-02-15T09:27:24;99429.47;;;0.97;100.00
75425;BME280;64007;50.632;13.700;2023-02-15T09:29:50;99431.31;;;0.91;100.00
75425;BME280;64007;50.632;13.700;2023-02-15T09:32:16;99430.38;;;0.96;100.00
75425;BME280;64007;50.632;13.700;2023-02-15T09:34:42;99427.56;;;1.05;100.00
75425;BME280;64007;50.632;13.700;2023-02-15T09:37:08;99423.03;;;1.13;100.00
75425;BME280;64007;50.632;13.700;2023-02-15T09:39:37;99430.22;;;1.03;100.00
75425;BME280;64007;50.632;13.700;2023-02-15T09:42:48;99427.69;;;0.99;100.00
75425;BME280;64007;50.632;13.700;2023-02-15T10:26:19;99413.94;;;1.31;100.00
75425;BME280;64007;50.632;13.700;2023-02-15T10:31:22;99414.13;;;1.21;100.00
75425;BME280;64007;50.632;13.700;2023-02-15T10:33:55;99402.97;;;1.12;100.00
75425;BME280;64007;50.632;13.700;2023-02-15T10:44:23;99396.63;;;1.23;100.00
75425;BME280;64007;50.632;13.700;2023-02-15T10:57:45;99382.13;;;1.46;100.00
75425;BME280;64007;50.632;13.700;2023-02-15T11:05:45;99381.63;;;1.30;100.00
75425;BME280;64007;50.632;13.700;2023-02-15T11:08:17;99377.63;;;1.12;100.00
75425;BME280;64007;50.632;13.700;2023-02-15T11:10:53;99376.34;;;1.32;100.00
75425;BME280;64007;50.632;13.700;2023-02-15T11:13:22;99370.34;;;1.27;100.00
75425;BME280;64007;50.632;13.700;2023-02-15T11:16:03;99373.75;;;1.32;100.00
75425;BME280;64007;50.632;13.700;2023-02-15T11:18:39;99367.69;;;1.28;100.00
75425;BME280;64007;50.632;13.700;2023-02-15T11:21:17;99356.50;;;1.21;100.00
75425;BME280;64007;50.632;13.700;2023-02-15T11:23:44;99354.63;;;1.27;100.00
75425;BME280;64007;50.632;13.700;2023-02-15T11:27:00;99349.47;;;1.23;100.00
75425;BME280;64007;50.632;13.700;2023-02-15T11:29:13;99344.34;;;1.17;100.00
75425;BME280;64007;50.632;13.700;2023-02-15T11:31:47;99347.66;;;1.25;100.00
75425;BME280;64007;50.632;13.700;2023-02-15T11:34:29;99337.25;;;1.22;100.00
75425;BME280;64007;50.632;13.700;2023-02-15T11:37:00;99337.81;;;1.37;100.00
75425;BME280;64007;50.632;13.700;2023-02-15T11:39:28;99337.19;;;1.25;100.00
75425;BME280;64007;50.632;13.700;2023-02-15T11:41:57;99335.47;;;1.24;100.00
75425;BME280;64007;50.632;13.700;2023-02-15T11:44:29;99331.06;;;1.27;100.00
75425;BME280;64007;50.632;13.700;2023-02-15T11:46:58;99331.88;;;1.29;100.00
75425;BME280;64007;50.632;13.700;2023-02-15T11:49:30;99335.16;;;1.38;100.00
75425;BME280;64007;50.632;13.700;2023-02-15T11:51:58;99331.56;;;1.42;100.00
75425;BME280;64007;50.632;13.700;2023-02-15T11:54:32;99331.75;;;1.35;100.00
75425;BME280;64007;50.632;13.700;2023-02-15T11:57:11;99325.66;;;1.33;100.00
75425;BME280;64007;50.632;13.700;2023-02-15T11:59:41;99324.78;;;1.34;100.00
75425;BME280;64007;50.632;13.700;2023-02-15T12:02:19;99323.88;;;1.35;100.00
75425;BME280;64007;50.632;13.700;2023-02-15T12:05:10;99327.34;;;1.35;100.00
75425;BME280;64007;50.632;13.700;2023-02-15T12:07:45;99324.69;;;1.37;100.00
75425;BME280;64007;50.632;13.700;2023-02-15T12:10:25;99327.72;;;1.18;100.00
75425;BME280;64007;50.632;13.700;2023-02-15T12:13:15;99331.75;;;1.35;100.00
75425;BME280;64007;50.632;13.700;2023-02-15T12:15:53;99321.03;;;1.44;100.00
75425;BME280;64007;50.632;13.700;2023-02-15T12:21:07;99319.97;;;1.52;100.00
75425;BME280;64007;50.632;13.700;2023-02-15T12:23:34;99313.44;;;1.70;100.00
75425;BME280;64007;50.632;13.700;2023-02-15T12:26:05;99306.53;;;1.66;100.00
75425;BME280;64007;50.632;13.700;2023-02-15T12:28:32;99310.53;;;1.81;100.00
75425;BME280;64007;50.632;13.700;2023-02-15T12:31:01;99311.63;;;1.72;100.00
75425;BME280;64007;50.632;13.700;2023-02-15T12:33:40;99310.66;;;1.76;100.00
75425;BME280;64007;50.632;13.700;2023-02-15T12:38:36;99295.16;;;2.01;100.00
75425;BME280;64007;50.632;13.700;2023-02-15T12:41:10;99302.09;;;2.04;100.00
75425;BME280;64007;50.632;13.700;2023-02-15T12:43:47;99296.25;;;1.93;100.00
75425;BME280;64007;50.632;13.700;2023-02-15T12:46:22;99295.25;;;1.97;100.00
75425;BME280;64007;50.632;13.700;2023-02-15T12:49:05;99294.22;;;2.04;100.00
75425;BME280;64007;50.632;13.700;2023-02-15T12:51:49;99284.91;;;1.92;100.00
75425;BME280;64007;50.632;13.700;2023-02-15T12:56:48;99275.13;;;1.97;100.00
75425;BME280;64007;50.632;13.700;2023-02-15T12:59:14;99264.69;;;1.96;100.00
75425;BME280;64007;50.632;13.700;2023-02-15T13:01:42;99268.94;;;2.00;100.00
75425;BME280;64007;50.632;13.700;2023-02-15T13:04:21;99257.69;;;1.96;100.00
75425;BME280;64007;50.632;13.700;2023-02-15T13:06:49;99259.41;;;1.97;100.00
75425;BME280;64007;50.632;13.700;2023-02-15T13:12:25;99257.53;;;2.02;100.00
75425;BME280;64007;50.632;13.700;2023-02-15T13:14:53;99259.78;;;1.83;100.00
75425;BME280;64007;50.632;13.700;2023-02-15T13:17:26;99250.44;;;1.73;100.00
75425;BME280;64007;50.632;13.700;2023-02-15T13:19:57;99256.44;;;1.77;100.00
75425;BME280;64007;50.632;13.700;2023-02-15T13:22:30;99250.34;;;1.76;100.00
75425;BME280;64007;50.632;13.700;2023-02-15T13:25:00;99247.88;;;1.70;100.00
75425;BME280;64007;50.632;13.700;2023-02-15T13:27:37;99247.34;;;1.56;100.00
75425;BME280;64007;50.632;13.700;2023-02-15T13:30:44;99245.41;;;1.64;100.00
75425;BME280;64007;50.632;13.700;2023-02-15T13:33:23;99251.28;;;1.74;100.00
75425;BME280;64007;50.632;13.700;2023-02-15T13:38:55;99253.09;;;1.72;100.00
75425;BME280;64007;50.632;13.700;2023-02-15T13:41:31;99249.53;;;1.74;100.00
75425;BME280;64007;50.632;13.700;2023-02-15T13:49:45;99251.41;;;1.69;100.00
75425;BME280;64007;50.632;13.700;2023-02-15T14:05:27;99251.41;;;1.34;100.00
75425;BME280;64007;50.632;13.700;2023-02-15T14:08:17;99252.81;;;1.47;100.00
75425;BME280;64007;50.632;13.700;2023-02-15T14:11:01;99252.88;;;1.45;100.00
75425;BME280;64007;50.632;13.700;2023-02-15T14:18:55;99240.47;;;1.15;100.00
75425;BME280;64007;50.632;13.700;2023-02-15T14:24:05;99244.78;;;1.17;100.00
75425;BME280;64007;50.632;13.700;2023-02-15T14:26:40;99226.63;;;1.10;100.00
75425;BME280;64007;50.632;13.700;2023-02-15T14:29:20;99224.72;;;1.16;100.00
75425;BME280;64007;50.632;13.700;2023-02-15T14:31:58;99228.91;;;1.25;100.00
75425;BME280;64007;50.632;13.700;2023-02-15T14:34:45;99238.47;;;1.28;100.00
75425;BME280;64007;50.632;13.700;2023-02-15T14:37:13;99235.69;;;1.34;100.00
75425;BME280;64007;50.632;13.700;2023-02-15T14:45:29;99225.16;;;0.98;100.00
75425;BME280;64007;50.632;13.700;2023-02-15T14:50:39;99227.69;;;1.03;100.00
75425;BME280;64007;50.632;13.700;2023-02-15T14:53:32;99233.13;;;0.93;100.00
75425;BME280;64007;50.632;13.700;2023-02-15T14:56:25;99224.50;;;0.90;100.00
75425;BME280;64007;50.632;13.700;2023-02-15T15:01:32;99224.41;;;0.93;100.00
75425;BME280;64007;50.632;13.700;2023-02-15T15:04:05;99229.44;;;1.02;100.00
75425;BME280;64007;50.632;13.700;2023-02-15T15:06:36;99226.72;;;1.07;100.00
75425;BME280;64007;50.632;13.700;2023-02-15T15:09:20;99229.69;;;0.91;100.00
75425;BME280;64007;50.632;13.700;2023-02-15T15:11:49;99231.22;;;1.00;100.00
75425;BME280;64007;50.632;13.700;2023-02-15T15:14:39;99229.28;;;1.08;100.00
75425;BME280;64007;50.632;13.700;2023-02-15T15:17:08;99229.28;;;1.08;100.00
75425;BME280;64007;50.632;13.700;2023-02-15T15:20:03;99230.44;;;0.97;100.00
75425;BME280;64007;50.632;13.700;2023-02-15T15:22:31;99232.50;;;0.84;100.00
75425;BME280;64007;50.632;13.700;2023-02-15T15:24:59;99225.47;;;0.86;100.00
75425;BME280;64007;50.632;13.700;2023-02-15T15:27:53;99233.88;;;0.99;100.00
75425;BME280;64007;50.632;13.700;2023-02-15T15:49:40;99220.84;;;0.97;100.00
75425;BME280;64007;50.632;13.700;2023-02-15T15:52:15;99216.63;;;0.90;100.00
75425;BME280;64007;50.632;13.700;2023-02-15T15:54:43;99217.72;;;0.80;100.00